createdAt,value
2023-06-05T00:00:08.496Z,46.10
2023-06-05T00:01:09.741Z,46.10
2023-06-05T00:02:08.719Z,46.09
2023-06-05T00:03:08.812Z,46.13
2023-06-05T00:04:09.960Z,46.10
2023-06-05T00:05:09.975Z,46.10
2023-06-05T00:06:08.991Z,46.11
2023-06-05T00:07:08.974Z,46.11
2023-06-05T00:08:10.149Z,46.11
2023-06-05T00:09:10.070Z,46.13
2023-06-05T00:10:10.141Z,46.11
2023-06-05T00:11:10.410Z,46.12
2023-06-05T00:12:09.225Z,46.12
2023-06-05T00:13:10.262Z,46.13
2023-06-05T00:14:09.322Z,46.12
2023-06-05T00:15:10.389Z,46.14
2023-06-05T00:16:10.513Z,46.14
2023-06-05T00:17:10.553Z,46.12
2023-06-05T00:18:09.666Z,46.13
2023-06-05T00:19:09.669Z,46.12
2023-06-05T00:20:11.447Z,46.13
2023-06-05T00:21:09.899Z,46.13
2023-06-05T00:22:10.805Z,46.14
2023-06-05T00:23:09.866Z,46.15
2023-06-05T00:24:09.964Z,46.13
2023-06-05T00:25:10.061Z,46.10
2023-06-05T00:26:10.053Z,46.14
2023-06-05T00:27:11.161Z,46.11
2023-06-05T00:28:10.230Z,46.11
2023-06-05T00:29:11.402Z,46.10
2023-06-05T00:30:11.350Z,46.11
2023-06-05T00:31:11.580Z,46.11
2023-06-05T00:32:10.427Z,46.15
2023-06-05T00:33:10.550Z,46.17
2023-06-05T00:34:11.548Z,46.17
2023-06-05T00:35:11.630Z,46.15
2023-06-05T00:36:10.600Z,46.17
2023-06-05T00:37:11.683Z,46.16
2023-06-05T00:38:10.702Z,46.15
2023-06-05T00:39:11.803Z,46.17
2023-06-05T00:40:10.778Z,46.14
2023-06-05T00:41:11.832Z,46.14
2023-06-05T00:42:10.855Z,46.17
2023-06-05T00:43:11.875Z,46.16
2023-06-05T00:44:11.898Z,46.17
2023-06-05T00:45:11.959Z,46.17
2023-06-05T00:46:10.994Z,46.18
2023-06-05T00:47:12.031Z,46.17
2023-06-05T00:48:11.043Z,46.17
2023-06-05T00:49:12.074Z,46.16
2023-06-05T00:50:11.140Z,46.16
2023-06-05T00:51:12.208Z,46.14
2023-06-05T00:52:11.409Z,46.17
2023-06-05T00:53:11.358Z,46.16
2023-06-05T00:54:12.380Z,46.16
2023-06-05T00:55:12.444Z,46.14
2023-06-05T00:56:12.488Z,46.18
2023-06-05T00:57:12.587Z,46.19
2023-06-05T00:58:11.707Z,46.19
2023-06-05T00:59:11.680Z,46.19
2023-06-05T01:00:12.695Z,46.19
2023-06-05T01:01:11.962Z,46.19
2023-06-05T01:02:11.886Z,46.20
2023-06-05T01:03:12.089Z,46.20
2023-06-05T01:04:11.966Z,46.19
2023-06-05T01:05:13.030Z,46.19
2023-06-05T01:06:13.082Z,46.17
2023-06-05T01:07:12.173Z,46.18
2023-06-05T01:08:12.207Z,46.21
2023-06-05T01:09:12.280Z,46.16
2023-06-05T01:10:13.338Z,46.17
2023-06-05T01:11:13.397Z,46.19
2023-06-05T01:12:13.472Z,46.19
2023-06-05T01:13:13.520Z,46.21
2023-06-05T01:14:12.603Z,46.19
2023-06-05T01:15:12.680Z,46.19
2023-06-05T01:16:13.715Z,46.21
2023-06-05T01:17:12.900Z,46.17
2023-06-05T01:18:13.866Z,46.20
2023-06-05T01:19:12.925Z,46.18
2023-06-05T01:20:13.021Z,46.19
2023-06-05T01:21:13.067Z,46.23
2023-06-05T01:22:14.111Z,46.19
2023-06-05T01:23:14.178Z,46.17
2023-06-05T01:24:13.255Z,46.23
2023-06-05T01:25:14.308Z,46.23
2023-06-05T01:26:14.420Z,46.20
2023-06-05T01:27:14.419Z,46.20
2023-06-05T01:28:13.487Z,46.20
2023-06-05T01:29:14.542Z,46.21
2023-06-05T01:30:14.582Z,46.22
2023-06-05T01:31:13.653Z,46.21
2023-06-05T01:32:14.678Z,46.23
2023-06-05T01:33:13.856Z,46.20
2023-06-05T01:34:14.790Z,46.22
2023-06-05T01:35:14.853Z,46.21
2023-06-05T01:36:14.931Z,46.24
2023-06-05T01:37:14.972Z,46.20
2023-06-05T01:38:14.047Z,46.21
2023-06-05T01:39:14.127Z,46.22
2023-06-05T01:40:14.097Z,46.19
2023-06-05T01:41:14.147Z,46.22
2023-06-05T01:42:14.171Z,46.21
2023-06-05T01:43:14.251Z,46.22
2023-06-05T01:44:14.273Z,46.23
2023-06-05T01:45:14.244Z,46.21
2023-06-05T01:46:14.308Z,46.25
2023-06-05T01:47:15.272Z,46.23
2023-06-05T01:48:15.279Z,46.23
2023-06-05T01:49:14.321Z,46.23
2023-06-05T01:50:14.394Z,46.24
2023-06-05T01:51:14.313Z,46.24
2023-06-05T01:52:15.357Z,46.20
2023-06-05T01:53:15.370Z,46.24
2023-06-05T01:54:14.388Z,46.23
2023-06-05T01:55:15.393Z,46.25
2023-06-05T01:56:14.479Z,46.25
2023-06-05T01:57:15.579Z,46.26
2023-06-05T01:58:14.560Z,46.26
2023-06-05T01:59:15.663Z,46.26
2023-06-05T02:00:15.685Z,46.23
2023-06-05T02:01:15.748Z,46.27
2023-06-05T02:02:15.910Z,46.26
2023-06-05T02:03:15.935Z,46.28
2023-06-05T02:04:14.869Z,46.25
2023-06-05T02:05:14.965Z,46.26
2023-06-05T02:06:14.991Z,46.26
2023-06-05T02:07:15.066Z,46.26
2023-06-05T02:08:16.186Z,46.26
2023-06-05T02:09:15.148Z,46.28
2023-06-05T02:10:16.217Z,46.27
2023-06-05T02:11:16.230Z,46.24
2023-06-05T02:12:15.302Z,46.29
2023-06-05T02:13:15.316Z,46.26
2023-06-05T02:14:15.316Z,46.28
2023-06-05T02:15:16.648Z,46.25
2023-06-05T02:16:16.470Z,46.29
2023-06-05T02:17:15.444Z,46.28
2023-06-05T02:18:15.504Z,46.25
2023-06-05T02:19:16.520Z,46.27
2023-06-05T02:20:16.547Z,46.29
2023-06-05T02:21:15.609Z,46.26
2023-06-05T02:22:15.628Z,46.26
2023-06-05T02:23:15.674Z,46.29
2023-06-05T02:24:16.728Z,46.27
2023-06-05T02:25:16.749Z,46.26
2023-06-05T02:26:15.778Z,46.25
2023-06-05T02:27:15.822Z,46.26
2023-06-05T02:28:15.869Z,46.26
2023-06-05T02:29:16.888Z,46.26
2023-06-05T02:30:16.933Z,46.29
2023-06-05T02:31:15.952Z,46.30
2023-06-05T02:32:16.952Z,46.30
2023-06-05T02:33:16.925Z,46.29
2023-06-05T02:34:16.933Z,46.28
2023-06-05T02:35:15.978Z,46.25
2023-06-05T02:36:16.942Z,46.27
2023-06-05T02:37:15.951Z,46.28
2023-06-05T02:38:16.995Z,46.26
2023-06-05T02:39:17.005Z,46.27
2023-06-05T02:40:16.028Z,46.25
2023-06-05T02:41:17.051Z,46.28
2023-06-05T02:42:16.049Z,46.28
2023-06-05T02:43:17.069Z,46.29
2023-06-05T02:44:16.140Z,46.26
2023-06-05T02:45:17.175Z,46.28
2023-06-05T02:46:16.252Z,46.29
2023-06-05T02:47:17.219Z,46.27
2023-06-05T02:48:17.223Z,46.29
2023-06-05T02:49:16.235Z,46.29
2023-06-05T02:50:16.261Z,46.28
2023-06-05T02:51:16.299Z,46.28
2023-06-05T02:52:17.274Z,46.31
2023-06-05T02:53:17.259Z,46.29
2023-06-05T02:54:16.250Z,46.29
2023-06-05T02:55:16.258Z,46.32
2023-06-05T02:56:16.250Z,46.32
2023-06-05T02:57:16.272Z,46.32
2023-06-05T02:58:17.266Z,46.30
2023-06-05T02:59:17.248Z,46.29
2023-06-05T03:00:16.254Z,46.29
2023-06-05T03:01:17.265Z,46.30
2023-06-05T03:02:17.283Z,46.29
2023-06-05T03:03:17.331Z,46.30
2023-06-05T03:04:16.268Z,46.29
2023-06-05T03:05:16.277Z,46.29
2023-06-05T03:06:17.254Z,46.28
2023-06-05T03:07:16.247Z,46.29
2023-06-05T03:08:16.247Z,46.30
2023-06-05T03:09:17.262Z,46.28
2023-06-05T03:10:17.289Z,46.29
2023-06-05T03:11:16.276Z,46.28
2023-06-05T03:12:17.282Z,46.26
2023-06-05T03:13:17.269Z,46.30
2023-06-05T03:14:16.277Z,46.30
2023-06-05T03:15:16.292Z,46.32
2023-06-05T03:16:17.387Z,46.30
2023-06-05T03:17:17.299Z,46.28
2023-06-05T03:18:17.305Z,46.30
2023-06-05T03:19:16.306Z,46.28
2023-06-05T03:20:17.325Z,46.31
2023-06-05T03:21:16.297Z,46.32
2023-06-05T03:22:17.293Z,46.31
2023-06-05T03:23:16.324Z,46.32
2023-06-05T03:24:17.376Z,46.31
2023-06-05T03:25:17.380Z,46.32
2023-06-05T03:26:16.424Z,46.30
2023-06-05T03:27:16.422Z,46.32
2023-06-05T03:28:16.350Z,46.32
2023-06-05T03:29:17.332Z,46.32
2023-06-05T03:30:16.332Z,46.31
2023-06-05T03:31:16.322Z,46.34
2023-06-05T03:32:16.302Z,46.33
2023-06-05T03:33:17.394Z,46.30
2023-06-05T03:34:17.323Z,46.29
2023-06-05T03:35:17.323Z,46.29
2023-06-05T03:36:17.298Z,46.30
2023-06-05T03:37:17.289Z,46.30
2023-06-05T03:38:17.299Z,46.34
2023-06-05T03:39:16.301Z,46.30
2023-06-05T03:40:16.339Z,46.30
2023-06-05T03:41:16.283Z,46.33
2023-06-05T03:42:17.281Z,46.31
2023-06-05T03:43:17.293Z,46.31
2023-06-05T03:44:17.280Z,46.30
2023-06-05T03:45:16.269Z,46.29
2023-06-05T03:46:16.306Z,46.32
2023-06-05T03:47:17.312Z,46.33
2023-06-05T03:48:17.328Z,46.30
2023-06-05T03:49:17.259Z,46.32
2023-06-05T03:50:17.322Z,46.32
2023-06-05T03:51:17.276Z,46.32
2023-06-05T03:52:16.319Z,46.32
2023-06-05T03:53:16.263Z,46.32
2023-06-05T03:54:17.233Z,46.31
2023-06-05T03:55:17.251Z,46.31
2023-06-05T03:56:16.241Z,46.31
2023-06-05T03:57:17.210Z,46.28
2023-06-05T03:58:16.261Z,46.25
2023-06-05T03:59:16.242Z,46.29
2023-06-05T04:00:16.211Z,46.29
2023-06-05T04:01:16.208Z,46.27
2023-06-05T04:02:16.244Z,46.31
2023-06-05T04:03:16.308Z,46.28
2023-06-05T04:04:16.303Z,46.31
2023-06-05T04:05:17.245Z,46.31
2023-06-05T04:06:16.214Z,46.31
2023-06-05T04:07:16.216Z,46.31
2023-06-05T04:08:17.222Z,46.31
2023-06-05T04:09:17.222Z,46.31
2023-06-05T04:10:17.212Z,46.32
2023-06-05T04:11:16.219Z,46.33
2023-06-05T04:12:16.201Z,46.33
2023-06-05T04:13:16.214Z,46.33
2023-06-05T04:14:16.206Z,46.29
2023-06-05T04:15:16.229Z,46.34
2023-06-05T04:16:17.246Z,46.33
2023-06-05T04:17:17.271Z,46.34
2023-06-05T04:18:17.837Z,46.33
2023-06-05T04:19:17.241Z,46.32
2023-06-05T04:20:16.288Z,46.31
2023-06-05T04:21:17.247Z,46.35
2023-06-05T04:22:16.255Z,46.36
2023-06-05T04:23:17.279Z,46.37
2023-06-05T04:24:16.260Z,46.34
2023-06-05T04:25:16.276Z,46.35
2023-06-05T04:26:17.283Z,46.34
2023-06-05T04:27:17.297Z,46.35
2023-06-05T04:28:16.299Z,46.35
2023-06-05T04:29:17.294Z,46.35
2023-06-05T04:30:17.292Z,46.36
2023-06-05T04:31:16.351Z,46.34
2023-06-05T04:32:16.312Z,46.38
2023-06-05T04:33:17.317Z,46.36
2023-06-05T04:34:17.305Z,46.35
2023-06-05T04:35:17.324Z,46.33
2023-06-05T04:36:17.343Z,46.34
2023-06-05T04:37:16.312Z,46.32
2023-06-05T04:38:17.346Z,46.32
2023-06-05T04:39:17.345Z,46.34
2023-06-05T04:40:17.366Z,46.32
2023-06-05T04:41:17.359Z,46.31
2023-06-05T04:42:17.368Z,46.30
2023-06-05T04:43:16.358Z,46.33
2023-06-05T04:44:16.369Z,46.32
2023-06-05T04:45:16.380Z,46.33
2023-06-05T04:46:16.430Z,46.35
2023-06-05T04:47:17.398Z,46.38
2023-06-05T04:48:17.410Z,46.37
2023-06-05T04:49:17.447Z,46.34
2023-06-05T04:50:16.406Z,46.35
2023-06-05T04:51:17.423Z,46.33
2023-06-05T04:52:16.486Z,46.33
2023-06-05T04:53:17.434Z,46.33
2023-06-05T04:54:17.459Z,46.35
2023-06-05T04:55:17.471Z,46.34
2023-06-05T04:56:17.469Z,46.38
2023-06-05T04:57:16.494Z,46.34
2023-06-05T04:58:17.123Z,46.32
2023-06-05T04:59:17.511Z,46.37
2023-06-05T05:00:17.502Z,46.35
2023-06-05T05:01:16.560Z,46.33
2023-06-05T05:02:17.619Z,46.34
2023-06-05T05:03:16.553Z,46.35
2023-06-05T05:04:16.574Z,46.34
2023-06-05T05:05:17.593Z,46.31
2023-06-05T05:06:16.612Z,46.31
2023-06-05T05:07:16.743Z,46.31
2023-06-05T05:08:16.605Z,46.30
2023-06-05T05:09:17.623Z,46.32
2023-06-05T05:10:17.597Z,46.28
2023-06-05T05:11:17.569Z,46.27
2023-06-05T05:12:16.556Z,46.26
2023-06-05T05:13:17.573Z,46.27
2023-06-05T05:14:17.580Z,46.26
2023-06-05T05:15:17.569Z,46.28
2023-06-05T05:16:17.577Z,46.24
2023-06-05T05:17:17.540Z,46.24
2023-06-05T05:18:17.535Z,46.24
2023-06-05T05:19:17.525Z,46.24
2023-06-05T05:20:17.524Z,46.24
2023-06-05T05:21:16.606Z,46.20
2023-06-05T05:22:17.560Z,46.23
2023-06-05T05:23:18.710Z,46.21
2023-06-05T05:24:17.528Z,46.19
2023-06-05T05:25:16.549Z,46.20
2023-06-05T05:26:16.540Z,46.17
2023-06-05T05:27:17.582Z,46.17
2023-06-05T05:28:16.531Z,46.18
2023-06-05T05:29:16.538Z,46.16
2023-06-05T05:30:16.566Z,46.18
2023-06-05T05:31:16.594Z,46.20
2023-06-05T05:32:16.644Z,46.19
2023-06-05T05:33:16.632Z,46.15
2023-06-05T05:34:17.613Z,46.15
2023-06-05T05:35:16.663Z,46.09
2023-06-05T05:36:16.645Z,46.06
2023-06-05T05:37:17.649Z,46.09
2023-06-05T05:38:16.638Z,46.03
2023-06-05T05:39:16.677Z,46.03
2023-06-05T05:40:17.674Z,46.06
2023-06-05T05:41:17.635Z,46.06
2023-06-05T05:42:16.674Z,46.03
2023-06-05T05:43:17.656Z,46.15
2023-06-05T05:44:17.899Z,46.27
2023-06-05T05:45:17.645Z,46.18
2023-06-05T05:46:17.757Z,46.16
2023-06-05T05:47:16.695Z,46.11
2023-06-05T05:48:16.688Z,46.09
2023-06-05T05:49:17.791Z,46.12
2023-06-05T05:50:17.792Z,46.33
2023-06-05T05:51:17.770Z,46.51
2023-06-05T05:52:17.752Z,46.77
2023-06-05T05:53:16.837Z,47.01
2023-06-05T05:54:16.860Z,47.10
2023-06-05T05:55:17.954Z,47.35
2023-06-05T05:56:17.939Z,47.35
2023-06-05T05:57:16.943Z,47.97
2023-06-05T05:58:17.001Z,48.37
2023-06-05T05:59:18.015Z,48.10
2023-06-05T06:00:18.165Z,49.40
2023-06-05T06:01:18.136Z,49.57
2023-06-05T06:02:17.408Z,49.36
2023-06-05T06:03:18.259Z,49.23
2023-06-05T06:04:17.425Z,48.96
2023-06-05T06:05:18.253Z,48.79
2023-06-05T06:06:17.243Z,48.54
2023-06-05T06:07:18.512Z,48.33
2023-06-05T06:08:18.254Z,48.14
2023-06-05T06:09:18.261Z,47.90
2023-06-05T06:10:18.344Z,47.80
2023-06-05T06:11:18.786Z,47.72
2023-06-05T06:12:18.583Z,47.59
2023-06-05T06:13:18.452Z,47.47
2023-06-05T06:14:18.529Z,47.41
2023-06-05T06:15:18.575Z,47.31
2023-06-05T06:16:17.659Z,47.30
2023-06-05T06:17:18.614Z,47.24
2023-06-05T06:18:18.546Z,47.19
2023-06-05T06:19:18.632Z,47.26
2023-06-05T06:20:17.555Z,47.30
2023-06-05T06:21:17.562Z,47.32
2023-06-05T06:22:18.666Z,47.31
2023-06-05T06:23:18.622Z,47.37
2023-06-05T06:24:17.586Z,47.38
2023-06-05T06:25:18.585Z,47.38
2023-06-05T06:26:17.570Z,47.44
2023-06-05T06:27:34.083Z,47.39
2023-06-05T06:28:18.595Z,47.37
2023-06-05T06:29:18.613Z,47.41
2023-06-05T06:30:17.637Z,47.41
2023-06-05T06:31:18.651Z,47.45
2023-06-05T06:32:17.570Z,47.42
2023-06-05T06:33:17.582Z,47.50
2023-06-05T06:34:17.549Z,47.47
2023-06-05T06:35:18.569Z,47.54
2023-06-05T06:36:17.549Z,47.48
2023-06-05T06:37:18.562Z,47.50
2023-06-05T06:38:18.550Z,47.55
2023-06-05T06:39:17.550Z,47.56
2023-06-05T06:40:18.515Z,47.60
2023-06-05T06:41:17.544Z,47.66
2023-06-05T06:42:18.517Z,47.71
2023-06-05T06:43:18.539Z,47.69
2023-06-05T06:44:18.548Z,47.79
2023-06-05T06:45:18.612Z,47.76
2023-06-05T06:46:18.511Z,47.77
2023-06-05T06:47:18.489Z,47.79
2023-06-05T06:48:18.538Z,47.85
2023-06-05T06:49:17.535Z,47.81
2023-06-05T06:50:18.469Z,47.76
2023-06-05T06:51:18.504Z,47.77
2023-06-05T06:52:18.463Z,47.98
2023-06-05T06:53:17.445Z,48.41
2023-06-05T06:54:17.456Z,48.17
2023-06-05T06:55:17.472Z,48.08
2023-06-05T06:56:17.894Z,48.58
2023-06-05T06:57:18.734Z,49.01
2023-06-05T06:58:18.614Z,48.87
2023-06-05T06:59:17.715Z,48.78
2023-06-05T07:00:18.671Z,48.62
2023-06-05T07:01:17.962Z,48.53
2023-06-05T07:02:17.761Z,48.47
2023-06-05T07:03:19.206Z,48.44
2023-06-05T07:04:18.772Z,48.36
2023-06-05T07:05:17.862Z,48.27
2023-06-05T07:06:17.924Z,48.23
2023-06-05T07:07:18.959Z,48.18
2023-06-05T07:08:19.038Z,48.14
2023-06-05T07:09:19.002Z,47.90
2023-06-05T07:10:18.164Z,47.70
2023-06-05T07:11:19.304Z,47.80
2023-06-05T07:12:19.154Z,47.45
2023-06-05T07:13:18.125Z,47.53
2023-06-05T07:14:18.405Z,47.39
2023-06-05T07:15:19.427Z,47.21
2023-06-05T07:16:19.212Z,47.13
2023-06-05T07:17:18.218Z,47.42
2023-06-05T07:18:19.214Z,47.22
2023-06-05T07:19:19.178Z,47.27
2023-06-05T07:20:19.240Z,47.38
2023-06-05T07:21:19.241Z,47.58
2023-06-05T07:22:19.231Z,47.49
2023-06-05T07:23:21.401Z,47.57
2023-06-05T07:24:18.243Z,47.54
2023-06-05T07:25:19.398Z,47.61
2023-06-05T07:26:19.415Z,47.62
2023-06-05T07:27:19.241Z,47.61
2023-06-05T07:28:18.398Z,47.66
2023-06-05T07:29:19.328Z,47.66
2023-06-05T07:30:19.215Z,47.58
2023-06-05T07:31:19.348Z,47.67
2023-06-05T07:32:18.244Z,47.62
2023-06-05T07:33:29.792Z,47.59
2023-06-05T07:34:19.222Z,47.59
2023-06-05T07:35:19.201Z,47.60
2023-06-05T07:36:19.189Z,47.74
2023-06-05T07:37:19.486Z,47.67
2023-06-05T07:38:18.147Z,47.61
2023-06-05T07:39:19.359Z,47.69
2023-06-05T07:40:19.146Z,47.54
2023-06-05T07:41:18.845Z,47.78
2023-06-05T07:42:19.189Z,47.96
2023-06-05T07:43:19.210Z,47.85
2023-06-05T07:44:19.110Z,47.82
2023-06-05T07:45:19.185Z,47.88
2023-06-05T07:46:19.185Z,48.19
2023-06-05T07:47:18.115Z,47.71
2023-06-05T07:48:19.795Z,48.00
2023-06-05T07:49:19.080Z,47.98
2023-06-05T07:50:19.346Z,48.07
2023-06-05T07:51:19.153Z,48.16
2023-06-05T07:52:19.402Z,48.13
2023-06-05T07:53:20.965Z,48.37
2023-06-05T07:54:18.344Z,48.46
2023-06-05T07:55:19.028Z,48.13
2023-06-05T07:56:18.257Z,48.30
2023-06-05T07:57:19.107Z,48.13
2023-06-05T07:58:19.032Z,48.03
2023-06-05T07:59:19.014Z,48.15
2023-06-05T08:00:19.003Z,48.13
2023-06-05T08:01:18.096Z,48.08
2023-06-05T08:02:19.253Z,48.12
2023-06-05T08:03:19.630Z,48.15
2023-06-05T08:04:19.098Z,48.07
2023-06-05T08:05:17.951Z,48.07
2023-06-05T08:06:18.974Z,48.12
2023-06-05T08:07:19.052Z,48.12
2023-06-05T08:08:18.996Z,48.14
2023-06-05T08:09:18.927Z,48.27
2023-06-05T08:10:18.918Z,48.38
2023-06-05T08:11:18.911Z,48.26
2023-06-05T08:12:17.966Z,48.23
2023-06-05T08:13:18.964Z,48.44
2023-06-05T08:14:18.934Z,48.33
2023-06-05T08:15:17.915Z,48.23
2023-06-05T08:16:18.031Z,48.29
2023-06-05T08:17:18.103Z,48.25
2023-06-05T08:18:19.066Z,48.24
2023-06-05T08:19:18.151Z,48.37
2023-06-05T08:20:19.475Z,48.81
2023-06-05T08:21:19.261Z,49.02
2023-06-05T08:22:19.283Z,48.56
2023-06-05T08:23:19.323Z,48.49
2023-06-05T08:24:19.332Z,48.51
2023-06-05T08:25:19.407Z,48.73
2023-06-05T08:26:19.417Z,48.68
2023-06-05T08:27:19.421Z,48.63
2023-06-05T08:28:19.533Z,48.55
2023-06-05T08:29:19.729Z,48.62
2023-06-05T08:30:18.525Z,48.89
2023-06-05T08:31:19.622Z,48.86
2023-06-05T08:32:19.609Z,48.95
2023-06-05T08:33:20.554Z,48.91
2023-06-05T08:34:18.633Z,49.11
2023-06-05T08:35:19.685Z,49.13
2023-06-05T08:36:19.771Z,49.05
2023-06-05T08:37:19.732Z,48.86
2023-06-05T08:38:19.736Z,48.79
2023-06-05T08:39:18.770Z,48.80
2023-06-05T08:40:18.780Z,48.98
2023-06-05T08:41:19.943Z,48.48
2023-06-05T08:42:20.539Z,48.85
2023-06-05T08:43:18.918Z,48.32
2023-06-05T08:44:19.953Z,48.65
2023-06-05T08:45:19.950Z,48.66
2023-06-05T08:46:20.028Z,48.56
2023-06-05T08:47:20.191Z,48.63
2023-06-05T08:48:20.181Z,48.40
2023-06-05T08:49:20.128Z,47.00
2023-06-05T08:50:20.280Z,48.28
2023-06-05T08:51:19.138Z,48.44
2023-06-05T08:52:19.167Z,48.57
2023-06-05T08:53:21.846Z,48.91
2023-06-05T08:54:19.266Z,48.48
2023-06-05T08:55:19.152Z,48.53
2023-06-05T08:56:19.178Z,48.41
2023-06-05T08:57:19.951Z,48.40
2023-06-05T08:58:20.128Z,48.30
2023-06-05T08:59:20.171Z,48.41
2023-06-05T09:00:20.214Z,48.39
2023-06-05T09:01:20.143Z,48.45
2023-06-05T09:02:20.157Z,48.32
2023-06-05T09:03:20.095Z,48.42
2023-06-05T09:04:20.095Z,48.34
2023-06-05T09:05:20.183Z,48.25
2023-06-05T09:06:20.104Z,48.24
2023-06-05T09:07:20.072Z,48.15
2023-06-05T09:08:19.138Z,48.21
2023-06-05T09:09:20.038Z,48.09
2023-06-05T09:10:20.043Z,48.07
2023-06-05T09:11:20.045Z,48.04
2023-06-05T09:12:20.110Z,47.92
2023-06-05T09:13:20.031Z,47.92
2023-06-05T09:14:20.019Z,47.91
2023-06-05T09:15:20.037Z,47.95
2023-06-05T09:16:20.194Z,48.14
2023-06-05T09:17:19.985Z,48.16
2023-06-05T09:18:18.989Z,48.05
2023-06-05T09:19:19.976Z,48.22
2023-06-05T09:20:19.993Z,48.10
2023-06-05T09:21:19.979Z,48.17
2023-06-05T09:22:19.976Z,47.97
2023-06-05T09:24:20.073Z,47.95
2023-06-05T09:25:19.959Z,47.88
2023-06-05T09:26:21.295Z,47.94
2023-06-05T09:27:18.941Z,48.00
2023-06-05T09:28:19.963Z,48.14
2023-06-05T09:29:20.039Z,47.80
2023-06-05T09:30:19.987Z,47.60
2023-06-05T09:31:20.111Z,47.77
2023-06-05T09:32:20.131Z,47.97
2023-06-05T09:33:20.154Z,47.74
2023-06-05T09:34:20.166Z,47.72
2023-06-05T09:35:20.320Z,47.78
2023-06-05T09:36:20.240Z,47.73
2023-06-05T09:37:20.301Z,47.65
2023-06-05T09:38:20.443Z,47.71
2023-06-05T09:39:20.343Z,47.70
2023-06-05T09:40:20.391Z,47.91
2023-06-05T09:41:19.387Z,47.95
2023-06-05T09:42:20.464Z,47.88
2023-06-05T09:43:19.638Z,47.74
2023-06-05T09:44:20.549Z,47.67
2023-06-05T09:45:20.577Z,47.69
2023-06-05T09:46:20.673Z,47.55
2023-06-05T09:47:22.576Z,47.09
2023-06-05T09:48:20.869Z,47.37
2023-06-05T09:49:20.635Z,47.20
2023-06-05T09:50:20.693Z,47.09
2023-06-05T09:51:19.805Z,47.19
2023-06-05T09:52:20.978Z,47.41
2023-06-05T09:53:20.881Z,46.77
2023-06-05T09:54:20.598Z,47.45
2023-06-05T09:55:20.617Z,47.70
2023-06-05T09:56:20.568Z,47.32
2023-06-05T09:57:19.570Z,47.33
2023-06-05T09:58:20.551Z,47.32
2023-06-05T09:59:19.604Z,47.45
2023-06-05T10:00:20.129Z,47.28
2023-06-05T10:01:20.618Z,47.16
2023-06-05T10:02:19.546Z,47.01
2023-06-05T10:03:20.530Z,47.11
2023-06-05T10:04:20.518Z,46.86
2023-06-05T10:05:19.955Z,46.89
2023-06-05T10:06:20.770Z,46.65
2023-06-05T10:07:20.561Z,47.01
2023-06-05T10:08:19.520Z,47.00
2023-06-05T10:09:20.488Z,47.13
2023-06-05T10:10:20.575Z,46.72
2023-06-05T10:11:20.648Z,46.53
2023-06-05T10:12:20.864Z,46.94
2023-06-05T10:13:20.064Z,47.12
2023-06-05T10:14:20.836Z,47.02
2023-06-05T10:15:20.842Z,46.91
2023-06-05T10:16:26.227Z,46.59
2023-06-05T10:17:21.023Z,46.86
2023-06-05T10:18:20.898Z,46.40
2023-06-05T10:19:20.890Z,46.48
2023-06-05T10:20:20.942Z,46.44
2023-06-05T10:21:19.949Z,46.55
2023-06-05T10:22:19.951Z,46.70
2023-06-05T10:23:20.099Z,46.60
2023-06-05T10:24:19.885Z,46.78
2023-06-05T10:25:19.858Z,46.88
2023-06-05T10:26:19.872Z,46.35
2023-06-05T10:27:20.866Z,46.96
2023-06-05T10:28:20.840Z,46.96
2023-06-05T10:29:20.840Z,46.80
2023-06-05T10:30:19.828Z,46.65
2023-06-05T10:31:20.901Z,46.65
2023-06-05T10:32:19.846Z,47.17
2023-06-05T10:33:20.120Z,46.89
2023-06-05T10:34:19.809Z,47.22
2023-06-05T10:35:20.806Z,47.22
2023-06-05T10:36:20.834Z,47.12
2023-06-05T10:37:19.847Z,46.91
2023-06-05T10:38:20.758Z,46.81
2023-06-05T10:39:19.946Z,46.83
2023-06-05T10:40:20.956Z,47.66
2023-06-05T10:41:20.961Z,47.57
2023-06-05T10:42:21.553Z,47.39
2023-06-05T10:43:21.095Z,47.36
2023-06-05T10:44:21.132Z,47.39
2023-06-05T10:45:21.228Z,47.42
2023-06-05T10:46:21.310Z,47.51
2023-06-05T10:47:20.557Z,47.54
2023-06-05T10:48:20.397Z,47.49
2023-06-05T10:49:21.658Z,47.54
2023-06-05T10:50:20.733Z,47.59
2023-06-05T10:51:20.591Z,47.67
2023-06-05T10:52:20.651Z,47.74
2023-06-05T10:53:20.700Z,47.70
2023-06-05T10:54:21.763Z,47.74
2023-06-05T10:55:20.807Z,47.79
2023-06-05T10:56:20.865Z,47.72
2023-06-05T10:57:21.914Z,47.68
2023-06-05T10:58:20.913Z,47.72
2023-06-05T10:59:20.964Z,47.76
2023-06-05T11:00:21.991Z,47.72
2023-06-05T11:01:21.207Z,47.69
2023-06-05T11:02:22.099Z,47.76
2023-06-05T11:03:22.065Z,47.75
2023-06-05T11:04:22.127Z,47.75
2023-06-05T11:05:21.073Z,47.74
2023-06-05T11:06:22.081Z,47.71
2023-06-05T11:07:21.114Z,47.68
2023-06-05T11:08:22.166Z,47.74
2023-06-05T11:09:21.227Z,47.75
2023-06-05T11:10:21.256Z,47.79
2023-06-05T11:11:21.264Z,47.78
2023-06-05T11:12:21.272Z,47.76
2023-06-05T11:13:22.329Z,47.81
2023-06-05T11:14:22.313Z,47.83
2023-06-05T11:15:21.317Z,47.81
2023-06-05T11:16:22.412Z,47.82
2023-06-05T11:17:22.345Z,47.77
2023-06-05T11:18:22.316Z,47.78
2023-06-05T11:19:21.304Z,47.81
2023-06-05T11:20:21.296Z,47.82
2023-06-05T11:21:22.369Z,47.79
2023-06-05T11:22:21.294Z,47.82
2023-06-05T11:23:22.333Z,47.85
2023-06-05T11:24:21.291Z,47.83
2023-06-05T11:25:21.258Z,47.81
2023-06-05T11:26:22.258Z,47.77
2023-06-05T11:27:22.268Z,47.80
2023-06-05T11:28:22.288Z,47.82
2023-06-05T11:29:22.290Z,47.83
2023-06-05T11:30:34.944Z,47.79
2023-06-05T11:31:22.830Z,47.84
2023-06-05T11:32:22.353Z,47.74
2023-06-05T11:33:22.945Z,47.81
2023-06-05T11:34:21.293Z,47.83
2023-06-05T11:35:21.283Z,47.80
2023-06-05T11:36:21.254Z,47.78
2023-06-05T11:37:22.279Z,47.77
2023-06-05T11:38:23.641Z,47.82
2023-06-05T11:39:21.296Z,47.81
2023-06-05T11:40:22.256Z,47.78
2023-06-05T11:41:22.238Z,47.80
2023-06-05T11:42:22.221Z,47.83
2023-06-05T11:43:21.242Z,47.80
2023-06-05T11:44:21.213Z,47.80
2023-06-05T11:45:22.220Z,47.83
2023-06-05T11:46:22.241Z,47.78
2023-06-05T11:47:22.218Z,47.78
2023-06-05T11:48:22.191Z,47.82
2023-06-05T11:49:22.190Z,47.84
2023-06-05T11:50:21.166Z,47.83
2023-06-05T11:51:22.171Z,47.90
2023-06-05T11:52:22.182Z,47.90
2023-06-05T11:53:22.157Z,47.90
2023-06-05T11:54:22.141Z,47.85
2023-06-05T11:55:22.144Z,47.84
2023-06-05T11:56:21.139Z,47.84
2023-06-05T11:57:21.123Z,47.85
2023-06-05T11:58:22.175Z,47.84
2023-06-05T11:59:22.168Z,47.85
2023-06-05T12:00:22.133Z,47.82
2023-06-05T12:01:22.107Z,47.84
2023-06-05T12:02:21.120Z,47.83
2023-06-05T12:03:21.191Z,47.87
2023-06-05T12:04:21.239Z,47.85
2023-06-05T12:05:21.086Z,47.79
2023-06-05T12:06:21.073Z,47.85
2023-06-05T12:07:21.087Z,47.84
2023-06-05T12:08:21.115Z,47.83
2023-06-05T12:09:21.071Z,47.86
2023-06-05T12:10:21.079Z,47.85
2023-06-05T12:11:22.039Z,47.84
2023-06-05T12:12:21.043Z,47.86
2023-06-05T12:13:22.058Z,47.84
2023-06-05T12:14:22.052Z,47.84
2023-06-05T12:15:22.029Z,47.81
2023-06-05T12:16:22.044Z,47.85
2023-06-05T12:17:22.009Z,47.83
2023-06-05T12:18:21.031Z,47.85
2023-06-05T12:19:22.098Z,47.84
2023-06-05T12:20:20.968Z,47.86
2023-06-05T12:21:22.048Z,47.82
2023-06-05T12:22:22.024Z,47.85
2023-06-05T12:23:22.004Z,47.85
2023-06-05T12:24:21.969Z,47.87
2023-06-05T12:25:21.638Z,47.85
2023-06-05T12:26:20.959Z,47.86
2023-06-05T12:27:21.937Z,47.84
2023-06-05T12:28:20.927Z,47.84
2023-06-05T12:29:20.939Z,47.85
2023-06-05T12:30:21.927Z,47.87
2023-06-05T12:31:21.959Z,47.86
2023-06-05T12:32:21.977Z,47.84
2023-06-05T12:33:21.893Z,47.85
2023-06-05T12:34:21.895Z,47.87
2023-06-05T12:35:20.904Z,47.86
2023-06-05T12:36:20.882Z,47.85
2023-06-05T12:37:20.876Z,47.86
2023-06-05T12:38:20.894Z,47.86
2023-06-05T12:39:21.877Z,47.88
2023-06-05T12:40:34.913Z,47.87
2023-06-05T12:41:21.860Z,47.98
2023-06-05T12:42:20.857Z,47.99
2023-06-05T12:43:20.849Z,47.90
2023-06-05T12:44:21.854Z,47.90
2023-06-05T12:45:20.840Z,48.01
2023-06-05T12:46:21.873Z,48.05
2023-06-05T12:47:20.960Z,48.11
2023-06-05T12:48:21.802Z,48.06
2023-06-05T12:49:21.792Z,48.04
2023-06-05T12:50:21.783Z,47.99
2023-06-05T12:51:21.792Z,48.00
2023-06-05T12:52:20.769Z,48.00
2023-06-05T12:53:20.780Z,47.98